LDZA/ZAG METAR and TAF weather

Enter ICAO airport designator
Station Type Date Time Source
LDZA METAR 2019/02/20 07:00 UTC NOAA

LDZA 200700Z 04004KT 7000 NSC M00/M02 Q1023 NOSIG


Station Type Date Time Source
LDZA Decoded METAR 2019/02/20 07:00 UTC NOAA

Zagreb / Pleso, Croatia (LDZA) 45-44N 016-04E 107M
Feb 20, 2019 - 02:00 AM EST / 2019.02.20 0700 UTC
Wind: from the NE (040 degrees) at 5 MPH (4 KT):0
Visibility: 4 mile(s):0
Temperature: 32 F (0 C)
Windchill: 26 F (-3 C):1
Dew Point: 28 F (-2 C)
Relative Humidity: 86%
Pressure (altimeter): 30.21 in. Hg (1023 hPa)
ob: LDZA 200700Z 04004KT 7000 NSC M00/M02 Q1023 NOSIG
cycle: 7

Station Type Date Time Source
LDZA TAF 2019/02/20 06:30 UTC NOAA

TAF LDZA 200525Z 2006/2106 VRB02KT CAVOK TX16/2013Z TNM02/2103Z PROB30 2006/2008 3000 MIFG BR PROB30
TEMPO 2011/2016 05006KT PROB30 2104/2106 3000 MIFG BR


Example: see airport list